Métars Prochent de la station Meteo-Danaklab-Domdidier

Ci-dessous, Les Metars prochent de la station Meteo-Danaklab-Domdidier

Un METAR (METeorological Aerodrome Report1) est un rapport d'observation (et non de prévision) météorologique pour l'aviation. Ce code international a été développé par les membres de l'Organisation de l'aviation civile internationale et est approuvé par l'Organisation météorologique mondiale. Les données de base sont communes à tous les pays mais certaines sections du code sont sujettes à des variantes locales.

Les messages METAR sont mis à jour régulièrement, souvent entre 30 minutes à 60 minutes pendant les heures d'ouverture du terrain, selon son équipement et l'éventualité d'un changement important du temps observé.


LSMP - Payerne (mil/Aut, Switzerland
Distance de la station: NNO 85km
Mise à jour: 29/02/2024 20:20
Quelques Nuages
Quelques Nuages
 Wind from variable
Vent: variable 4 km/h
Température: 6°C
Point de rosée: 3°C
Humidité: 81%
Baromètre: 1008 hPa
Clouds: Quelques Nuages
Visibility: 8 km
Cloud details: Quelques Nuages 3658 m
2024/02/29 19:20 LSMP 291920Z AUTO VRB02KT 8000NDV FEW120 06/03 Q1008 RMK
LSZB - Bern/Belp, Switzerland
Distance de la station: NNE 98km
Mise à jour: 29/02/2024 20:20
clair
clair
 Wind from calm
Vent: calme
Température: 4°C
Point de rosée: 2°C
Humidité: 87%
Baromètre: 1008 hPa
Récapitulatifs: clair
Visibility: supérieure à 10 km
2024/02/29 19:20 LSZB 291920Z 00000KT CAVOK 04/02 Q1008
 
LSGG - Geneva/Cointrin, Switzerland
Distance de la station: ONO 81km
Mise à jour: 29/02/2024 20:20
clair
clair
 Wind from variable
Vent: variable 2 km/h
Température: 9°C
Point de rosée: 4°C
Humidité: 71%
Baromètre: 1009 hPa
Récapitulatifs: clair
Visibility: supérieure à 10 km
2024/02/29 19:20 LSGG 291920Z VRB01KT CAVOK 09/04 Q1009 NOSIG
LFLP - Annecy/Meythet, France
Distance de la station: OSO 83km
Mise à jour: 29/02/2024 20:30
clair
clair
 Wind from NE
Vent: NE 6 km/h
Température: 7°C
Point de rosée: 5°C
Humidité: 87%
Baromètre: 1009 hPa
Récapitulatifs: clair
Visibility: supérieure à 10 km
2024/02/29 19:30 LFLP 291930Z AUTO 05003KT CAVOK 07/05 Q1009
 
LSGC - Les Eplatures, Switzerland
Distance de la station: NNO 115km
Mise à jour: 29/02/2024 20:20
clair
clair
 Wind from calm
Vent: calme
Température: 2°C
Point de rosée: 2°C
Humidité: 100%
Baromètre: 1007 hPa
Récapitulatifs: clair
Visibility: supérieure à 10 km
2024/02/29 19:20 LSGC 291920Z AUTO 00000KT CAVOK 02/02 Q1007
LSGS - Sion (mil/Civ/Au, Switzerland
Distance de la station: NE 22km
Mise à jour: 29/02/2024 20:20
clair
clair
 Wind from variable
Vent: variable 2 km/h
Température: 7°C
Point de rosée: 3°C
Humidité: 76%
Baromètre: 1008 hPa
Récapitulatifs: clair
Visibility: supérieure à 10 km
2024/02/29 19:20 LSGS 291920Z AUTO VRB01KT CAVOK 07/03 Q1008
 
LSMS - Sion (mil), Switzerland
Distance de la station: NE 22km
Mise à jour: 27/03/2019 11:50
Pas à jour
clair
clair
 Wind from SO
Vent: SO 7 km/h
Température: 9°C
Wind Chill: 8°C
Point de rosée: -4°C
Humidité: 40%
Baromètre: 1025 hPa
Récapitulatifs: clair
Visibility: supérieure à 10 km
2019/03/27 10:50 LSMS 271050Z 23004KT 200V280 CAVOK 09/M04 Q1025 RMK BLU+
LSMM - Meiringen, Switzerland
Distance de la station: NE 107km
Mise à jour: 29/02/2024 20:20
Quelques Nuages
Quelques Nuages
 Wind from variable
Vent: variable 4 km/h
Température: 4°C
Point de rosée: 2°C
Humidité: 87%
Baromètre: 1008 hPa
Clouds: Quelques Nuages
Visibility: 10 km
Cloud details: Quelques Nuages 3048 m
2024/02/29 19:20 LSMM 291920Z AUTO VRB02KT 9999NDV FEW100 04/02 Q1008 RMK
 
LIMW - Aosta Arpt, Italy
Distance de la station: SSE 42km
Mise à jour: 29/02/2024 18:20
Pas à jour
faible pluie
faible pluie
 Wind from ESE
Vent: ESE 15 km/h
Température: 11°C
Point de rosée: 7°C
Humidité: 77%
Baromètre: 1011 hPa
Récapitulatifs: faible pluie
Visibility: 10 km
2024/02/29 17:20 LIMW 291720Z AUTO 11008KT 9999 -RA ///////// 11/07 Q1011
LIMH - Pian Rosa (mtn T, Italy
Distance de la station: ESE 46km
Mise à jour: 29/02/2024 19:55

 Wind from S
Vent: S 11 km/h, Rafale: 30 km/h
2024/02/29 18:55 LIMH 291855Z AUTO 18006G16KT //// ///// Q////
 
LFLB - Chambery/Aix Bai, France
Distance de la station: OSO 109km
Mise à jour: 29/02/2024 20:30
clair
clair
 Wind from variable
Vent: variable 4 km/h
Température: 7°C
Point de rosée: 5°C
Humidité: 87%
Baromètre: 1009 hPa
Récapitulatifs: clair
Visibility: supérieure à 10 km
2024/02/29 19:30 LFLB 291930Z AUTO VRB02KT CAVOK 07/05 Q1009 NOSIG
LIMF - Torino/Caselle, Italy
Distance de la station: SSE 103km
Mise à jour: 29/02/2024 20:20
faible pluie, Couvert
faible pluie, Couvert
 Wind from variable
Vent: variable 4 km/h
Température: 10°C
Point de rosée: 10°C
Humidité: 100%
Baromètre: 1011 hPa
Récapitulatifs: faible pluie
Clouds: Couvert
Visibility: 7 km
Cloud details: nuageux 1372 m
Couvert 1676 m
2024/02/29 19:20 LIMF 291920Z VRB02KT 7000 -RA BKN045 OVC055 10/10 Q1011
 
LIMA - Aeritalia, Italy
Distance de la station: SSE 116km
Mise à jour: 29/02/2024 16:50
Pas à jour
faible pluie, nuageux
faible pluie, nuageux
 Wind from variable
Vent: variable 4 km/h
Température: 11°C
Point de rosée: 10°C
Humidité: 94%
Baromètre: 1012 hPa
Récapitulatifs: faible pluie
Clouds: nuageux
Visibility: 10 km
Cloud details: partiellement nuageux 305 m
nuageux 762 m
2024/02/29 15:50 LIMA 291550Z VRB02KT 9999 -RA SCT010 BKN025 11/10 Q1012